sensor_id;sensor_type;location;lat;lon;timestamp;temperature;humidity
72106;SHT30;59975;47.646;18.318;2022-10-17T00:01:05;12.39;75.97
72106;SHT30;59975;47.646;18.318;2022-10-17T00:03:31;12.35;76.17
72106;SHT30;59975;47.646;18.318;2022-10-17T00:05:56;12.35;76.08
72106;SHT30;59975;47.646;18.318;2022-10-17T00:08:27;12.36;76.08
72106;SHT30;59975;47.646;18.318;2022-10-17T00:10:58;12.38;76.15
72106;SHT30;59975;47.646;18.318;2022-10-17T00:13:25;12.38;75.87
72106;SHT30;59975;47.646;18.318;2022-10-17T00:15:51;12.39;76.09
72106;SHT30;59975;47.646;18.318;2022-10-17T00:18:16;12.41;75.67
72106;SHT30;59975;47.646;18.318;2022-10-17T00:20:45;12.39;76.00
72106;SHT30;59975;47.646;18.318;2022-10-17T00:23:10;12.44;76.00
72106;SHT30;59975;47.646;18.318;2022-10-17T00:25:36;12.38;76.07
72106;SHT30;59975;47.646;18.318;2022-10-17T00:28:02;12.39;76.13
72106;SHT30;59975;47.646;18.318;2022-10-17T00:30:27;12.39;76.11
72106;SHT30;59975;47.646;18.318;2022-10-17T00:32:54;12.38;76.07
72106;SHT30;59975;47.646;18.318;2022-10-17T00:35:20;12.42;76.10
72106;SHT30;59975;47.646;18.318;2022-10-17T00:37:45;12.41;76.01
72106;SHT30;59975;47.646;18.318;2022-10-17T00:40:11;12.42;76.00
72106;SHT30;59975;47.646;18.318;2022-10-17T00:42:37;12.39;75.99
72106;SHT30;59975;47.646;18.318;2022-10-17T00:45:29;12.36;76.20
72106;SHT30;59975;47.646;18.318;2022-10-17T00:47:58;12.34;76.41
72106;SHT30;59975;47.646;18.318;2022-10-17T00:50:25;12.32;76.53
72106;SHT30;59975;47.646;18.318;2022-10-17T00:52:51;12.29;76.67
72106;SHT30;59975;47.646;18.318;2022-10-17T00:55:23;12.32;76.55
72106;SHT30;59975;47.646;18.318;2022-10-17T00:57:50;12.36;76.43
72106;SHT30;59975;47.646;18.318;2022-10-17T01:00:17;12.39;76.38
72106;SHT30;59975;47.646;18.318;2022-10-17T01:02:44;12.39;76.24
72106;SHT30;59975;47.646;18.318;2022-10-17T01:05:09;12.39;76.25
72106;SHT30;59975;47.646;18.318;2022-10-17T01:07:37;12.39;76.65
72106;SHT30;59975;47.646;18.318;2022-10-17T01:10:05;12.35;76.72
72106;SHT30;59975;47.646;18.318;2022-10-17T01:12:44;12.42;76.66
72106;SHT30;59975;47.646;18.318;2022-10-17T01:15:49;12.35;76.75
72106;SHT30;59975;47.646;18.318;2022-10-17T01:18:47;12.31;77.16
72106;SHT30;59975;47.646;18.318;2022-10-17T01:32:36;12.17;79.74
72106;SHT30;59975;47.646;18.318;2022-10-17T01:35:10;12.12;80.19
72106;SHT30;59975;47.646;18.318;2022-10-17T01:38:19;12.08;80.10
72106;SHT30;59975;47.646;18.318;2022-10-17T01:40:52;12.11;79.05
72106;SHT30;59975;47.646;18.318;2022-10-17T01:43:34;12.11;78.22
72106;SHT30;59975;47.646;18.318;2022-10-17T01:46:11;12.11;77.87
72106;SHT30;59975;47.646;18.318;2022-10-17T01:48:44;12.17;77.60
72106;SHT30;59975;47.646;18.318;2022-10-17T01:51:18;12.14;77.60
72106;SHT30;59975;47.646;18.318;2022-10-17T01:53:55;12.24;77.62
72106;SHT30;59975;47.646;18.318;2022-10-17T01:56:24;12.18;77.56
72106;SHT30;59975;47.646;18.318;2022-10-17T01:59:11;12.20;77.37
72106;SHT30;59975;47.646;18.318;2022-10-17T02:01:41;12.18;77.25
72106;SHT30;59975;47.646;18.318;2022-10-17T02:04:09;12.15;77.38
72106;SHT30;59975;47.646;18.318;2022-10-17T02:06:36;12.17;77.47
72106;SHT30;59975;47.646;18.318;2022-10-17T02:09:25;12.15;77.64
72106;SHT30;59975;47.646;18.318;2022-10-17T02:15:18;12.05;77.73
72106;SHT30;59975;47.646;18.318;2022-10-17T02:20:58;11.97;77.95
72106;SHT30;59975;47.646;18.318;2022-10-17T02:25:59;11.92;78.16
72106;SHT30;59975;47.646;18.318;2022-10-17T02:28:51;11.90;78.23
72106;SHT30;59975;47.646;18.318;2022-10-17T02:31:27;11.90;78.39
72106;SHT30;59975;47.646;18.318;2022-10-17T02:34:00;11.85;78.29
72106;SHT30;59975;47.646;18.318;2022-10-17T02:36:31;11.82;78.36
72106;SHT30;59975;47.646;18.318;2022-10-17T02:39:00;11.78;78.70
72106;SHT30;59975;47.646;18.318;2022-10-17T02:41:30;11.75;79.14
72106;SHT30;59975;47.646;18.318;2022-10-17T02:43:56;11.70;79.46
72106;SHT30;59975;47.646;18.318;2022-10-17T02:46:23;11.61;79.69
72106;SHT30;59975;47.646;18.318;2022-10-17T02:48:56;11.57;79.61
72106;SHT30;59975;47.646;18.318;2022-10-17T02:56:36;11.41;80.09
72106;SHT30;59975;47.646;18.318;2022-10-17T02:59:06;11.36;80.48
72106;SHT30;59975;47.646;18.318;2022-10-17T03:01:36;11.34;80.51
72106;SHT30;59975;47.646;18.318;2022-10-17T03:04:11;11.37;80.72
72106;SHT30;59975;47.646;18.318;2022-10-17T03:06:37;11.37;80.67
72106;SHT30;59975;47.646;18.318;2022-10-17T03:09:03;11.37;80.82
72106;SHT30;59975;47.646;18.318;2022-10-17T03:11:28;11.33;80.84
72106;SHT30;59975;47.646;18.318;2022-10-17T03:13:54;11.27;80.99
72106;SHT30;59975;47.646;18.318;2022-10-17T03:16:19;11.23;81.06
72106;SHT30;59975;47.646;18.318;2022-10-17T03:18:45;11.20;81.73
72106;SHT30;59975;47.646;18.318;2022-10-17T03:21:10;11.12;82.07
72106;SHT30;59975;47.646;18.318;2022-10-17T03:23:37;11.09;82.42
72106;SHT30;59975;47.646;18.318;2022-10-17T03:26:06;11.06;82.89
72106;SHT30;59975;47.646;18.318;2022-10-17T03:28:32;11.00;83.32
72106;SHT30;59975;47.646;18.318;2022-10-17T03:30:58;10.92;83.55
72106;SHT30;59975;47.646;18.318;2022-10-17T03:33:23;10.86;84.00
72106;SHT30;59975;47.646;18.318;2022-10-17T03:35:49;10.88;83.97
72106;SHT30;59975;47.646;18.318;2022-10-17T03:38:14;10.91;83.74
72106;SHT30;59975;47.646;18.318;2022-10-17T03:40:40;10.89;83.44
72106;SHT30;59975;47.646;18.318;2022-10-17T03:43:05;10.88;83.11
72106;SHT30;59975;47.646;18.318;2022-10-17T03:45:31;10.93;83.01
72106;SHT30;59975;47.646;18.318;2022-10-17T03:47:59;10.95;83.09
72106;SHT30;59975;47.646;18.318;2022-10-17T03:50:25;10.96;82.67
72106;SHT30;59975;47.646;18.318;2022-10-17T03:52:50;11.06;82.38
72106;SHT30;59975;47.646;18.318;2022-10-17T03:55:16;11.12;82.12
72106;SHT30;59975;47.646;18.318;2022-10-17T03:57:42;11.19;81.69
72106;SHT30;59975;47.646;18.318;2022-10-17T04:00:09;11.27;81.08
72106;SHT30;59975;47.646;18.318;2022-10-17T04:02:34;11.31;80.95
72106;SHT30;59975;47.646;18.318;2022-10-17T04:05:00;11.37;80.79
72106;SHT30;59975;47.646;18.318;2022-10-17T04:07:26;11.39;80.31
72106;SHT30;59975;47.646;18.318;2022-10-17T04:09:52;11.43;80.52
72106;SHT30;59975;47.646;18.318;2022-10-17T04:12:22;11.39;80.66
72106;SHT30;59975;47.646;18.318;2022-10-17T04:14:48;11.41;80.63
72106;SHT30;59975;47.646;18.318;2022-10-17T04:17:14;11.41;80.92
72106;SHT30;59975;47.646;18.318;2022-10-17T04:19:39;11.36;81.43
72106;SHT30;59975;47.646;18.318;2022-10-17T04:22:04;11.27;81.51
72106;SHT30;59975;47.646;18.318;2022-10-17T04:24:37;11.31;81.32
72106;SHT30;59975;47.646;18.318;2022-10-17T04:27:03;11.31;80.54
72106;SHT30;59975;47.646;18.318;2022-10-17T04:29:28;11.31;80.09
72106;SHT30;59975;47.646;18.318;2022-10-17T04:31:54;11.37;79.39
72106;SHT30;59975;47.646;18.318;2022-10-17T04:34:20;11.40;79.11
72106;SHT30;59975;47.646;18.318;2022-10-17T04:36:55;11.40;78.79
72106;SHT30;59975;47.646;18.318;2022-10-17T04:39:20;11.43;78.57
72106;SHT30;59975;47.646;18.318;2022-10-17T04:41:46;11.40;78.41
72106;SHT30;59975;47.646;18.318;2022-10-17T04:44:12;11.41;78.29
72106;SHT30;59975;47.646;18.318;2022-10-17T04:46:37;11.49;77.97
72106;SHT30;59975;47.646;18.318;2022-10-17T04:49:08;11.47;77.85
72106;SHT30;59975;47.646;18.318;2022-10-17T04:51:33;11.50;77.76
72106;SHT30;59975;47.646;18.318;2022-10-17T04:53:59;11.50;77.55
72106;SHT30;59975;47.646;18.318;2022-10-17T04:56:24;11.49;77.55
72106;SHT30;59975;47.646;18.318;2022-10-17T04:58:50;11.57;77.23
72106;SHT30;59975;47.646;18.318;2022-10-17T05:01:20;11.57;77.03
72106;SHT30;59975;47.646;18.318;2022-10-17T05:03:46;11.59;76.98
72106;SHT30;59975;47.646;18.318;2022-10-17T05:06:20;11.50;76.71
72106;SHT30;59975;47.646;18.318;2022-10-17T05:08:46;11.51;76.66
72106;SHT30;59975;47.646;18.318;2022-10-17T05:11:15;11.56;76.49
72106;SHT30;59975;47.646;18.318;2022-10-17T05:13:42;11.54;76.46
72106;SHT30;59975;47.646;18.318;2022-10-17T05:16:07;11.60;76.40
72106;SHT30;59975;47.646;18.318;2022-10-17T05:18:33;11.56;76.54
72106;SHT30;59975;47.646;18.318;2022-10-17T05:20:58;11.54;76.60
72106;SHT30;59975;47.646;18.318;2022-10-17T05:23:39;11.53;76.43
72106;SHT30;59975;47.646;18.318;2022-10-17T05:26:05;11.57;76.44
72106;SHT30;59975;47.646;18.318;2022-10-17T05:28:30;11.57;76.42
72106;SHT30;59975;47.646;18.318;2022-10-17T05:30:55;11.53;76.41
72106;SHT30;59975;47.646;18.318;2022-10-17T05:33:21;11.56;76.36
72106;SHT30;59975;47.646;18.318;2022-10-17T05:35:50;11.56;76.14
72106;SHT30;59975;47.646;18.318;2022-10-17T05:38:16;11.69;75.72
72106;SHT30;59975;47.646;18.318;2022-10-17T05:40:44;11.73;75.62
72106;SHT30;59975;47.646;18.318;2022-10-17T05:43:10;11.77;75.58
72106;SHT30;59975;47.646;18.318;2022-10-17T05:45:41;11.81;75.14
72106;SHT30;59975;47.646;18.318;2022-10-17T05:48:07;11.82;75.17
72106;SHT30;59975;47.646;18.318;2022-10-17T05:50:42;11.88;75.21
72106;SHT30;59975;47.646;18.318;2022-10-17T05:53:11;11.94;74.90
72106;SHT30;59975;47.646;18.318;2022-10-17T05:56:04;11.99;74.58
72106;SHT30;59975;47.646;18.318;2022-10-17T05:58:31;12.08;74.47
72106;SHT30;59975;47.646;18.318;2022-10-17T06:01:27;12.06;74.45
72106;SHT30;59975;47.646;18.318;2022-10-17T06:04:13;12.17;74.30
72106;SHT30;59975;47.646;18.318;2022-10-17T06:09:47;12.32;73.76
72106;SHT30;59975;47.646;18.318;2022-10-17T06:12:37;12.39;73.61
72106;SHT30;59975;47.646;18.318;2022-10-17T06:15:03;12.49;72.92
72106;SHT30;59975;47.646;18.318;2022-10-17T06:17:33;12.59;72.62
72106;SHT30;59975;47.646;18.318;2022-10-17T06:19:59;12.63;72.53
72106;SHT30;59975;47.646;18.318;2022-10-17T06:22:24;12.67;72.32
72106;SHT30;59975;47.646;18.318;2022-10-17T06:25:11;12.75;72.44
72106;SHT30;59975;47.646;18.318;2022-10-17T06:27:37;12.80;72.08
72106;SHT30;59975;47.646;18.318;2022-10-17T06:30:06;12.85;71.80
72106;SHT30;59975;47.646;18.318;2022-10-17T06:32:53;12.93;71.58
72106;SHT30;59975;47.646;18.318;2022-10-17T06:38:55;13.16;70.84
72106;SHT30;59975;47.646;18.318;2022-10-17T06:41:20;13.26;70.49
72106;SHT30;59975;47.646;18.318;2022-10-17T06:43:49;13.27;70.54
72106;SHT30;59975;47.646;18.318;2022-10-17T06:46:21;13.34;70.44
72106;SHT30;59975;47.646;18.318;2022-10-17T06:52:53;13.54;69.46
72106;SHT30;59975;47.646;18.318;2022-10-17T06:55:21;13.65;69.01
72106;SHT30;59975;47.646;18.318;2022-10-17T06:57:47;13.70;68.93
72106;SHT30;59975;47.646;18.318;2022-10-17T07:03:35;13.92;68.11
72106;SHT30;59975;47.646;18.318;2022-10-17T07:06:04;14.01;68.25
72106;SHT30;59975;47.646;18.318;2022-10-17T07:08:32;14.09;67.24
72106;SHT30;59975;47.646;18.318;2022-10-17T07:10:58;14.19;67.07
72106;SHT30;59975;47.646;18.318;2022-10-17T07:13:45;14.22;67.42
72106;SHT30;59975;47.646;18.318;2022-10-17T07:16:14;14.34;66.52
72106;SHT30;59975;47.646;18.318;2022-10-17T07:18:41;14.40;66.08
72106;SHT30;59975;47.646;18.318;2022-10-17T07:21:17;14.53;65.96
72106;SHT30;59975;47.646;18.318;2022-10-17T07:23:43;14.57;65.49
72106;SHT30;59975;47.646;18.318;2022-10-17T07:26:15;14.62;65.40
72106;SHT30;59975;47.646;18.318;2022-10-17T07:32:06;14.79;65.23
72106;SHT30;59975;47.646;18.318;2022-10-17T07:34:35;14.84;64.86
72106;SHT30;59975;47.646;18.318;2022-10-17T07:40:37;15.06;64.55
72106;SHT30;59975;47.646;18.318;2022-10-17T07:49:22;15.27;64.17
72106;SHT30;59975;47.646;18.318;2022-10-17T07:51:48;15.35;64.38
72106;SHT30;59975;47.646;18.318;2022-10-17T07:57:40;15.61;62.55
72106;SHT30;59975;47.646;18.318;2022-10-17T08:00:12;15.73;61.86
72106;SHT30;59975;47.646;18.318;2022-10-17T08:02:37;15.83;62.07
72106;SHT30;59975;47.646;18.318;2022-10-17T08:05:03;15.89;62.07
72106;SHT30;59975;47.646;18.318;2022-10-17T08:07:30;15.92;61.52
72106;SHT30;59975;47.646;18.318;2022-10-17T08:09:56;16.10;61.38
72106;SHT30;59975;47.646;18.318;2022-10-17T08:12:22;16.14;61.43
72106;SHT30;59975;47.646;18.318;2022-10-17T08:14:49;16.23;60.91
72106;SHT30;59975;47.646;18.318;2022-10-17T08:17:14;16.33;60.44
72106;SHT30;59975;47.646;18.318;2022-10-17T08:19:40;16.39;60.58
72106;SHT30;59975;47.646;18.318;2022-10-17T08:22:06;16.46;59.50
72106;SHT30;59975;47.646;18.318;2022-10-17T08:24:35;16.51;59.31
72106;SHT30;59975;47.646;18.318;2022-10-17T08:27:01;16.63;59.32
72106;SHT30;59975;47.646;18.318;2022-10-17T08:36:46;16.84;58.67
72106;SHT30;59975;47.646;18.318;2022-10-17T08:39:32;16.91;58.61
72106;SHT30;59975;47.646;18.318;2022-10-17T08:42:23;17.00;58.66
72106;SHT30;59975;47.646;18.318;2022-10-17T08:45:20;17.10;58.38
72106;SHT30;59975;47.646;18.318;2022-10-17T08:47:59;17.19;57.89
72106;SHT30;59975;47.646;18.318;2022-10-17T08:50:35;17.26;57.52
72106;SHT30;59975;47.646;18.318;2022-10-17T08:55:43;17.49;56.13
72106;SHT30;59975;47.646;18.318;2022-10-17T08:58:23;17.58;55.44
72106;SHT30;59975;47.646;18.318;2022-10-17T09:06:58;17.76;53.92
72106;SHT30;59975;47.646;18.318;2022-10-17T09:18:15;18.16;52.32
72106;SHT30;59975;47.646;18.318;2022-10-17T09:21:01;18.13;52.75
72106;SHT30;59975;47.646;18.318;2022-10-17T09:23:41;18.20;52.52
72106;SHT30;59975;47.646;18.318;2022-10-17T09:39:55;18.55;53.01
72106;SHT30;59975;47.646;18.318;2022-10-17T09:42:24;18.65;52.55
72106;SHT30;59975;47.646;18.318;2022-10-17T09:45:13;18.72;52.33
72106;SHT30;59975;47.646;18.318;2022-10-17T09:47:46;18.74;51.89
72106;SHT30;59975;47.646;18.318;2022-10-17T09:50:40;18.82;51.29
72106;SHT30;59975;47.646;18.318;2022-10-17T09:53:19;18.82;51.57
72106;SHT30;59975;47.646;18.318;2022-10-17T09:56:06;18.89;51.35
72106;SHT30;59975;47.646;18.318;2022-10-17T09:58:49;18.91;51.92
72106;SHT30;59975;47.646;18.318;2022-10-17T10:04:15;18.94;52.22
72106;SHT30;59975;47.646;18.318;2022-10-17T10:07:01;18.89;52.83
72106;SHT30;59975;47.646;18.318;2022-10-17T10:09:30;18.92;53.40
72106;SHT30;59975;47.646;18.318;2022-10-17T10:11:58;19.01;52.81
72106;SHT30;59975;47.646;18.318;2022-10-17T10:14:36;19.09;52.69
72106;SHT30;59975;47.646;18.318;2022-10-17T10:17:39;19.18;51.82
72106;SHT30;59975;47.646;18.318;2022-10-17T10:20:36;19.25;51.03
72106;SHT30;59975;47.646;18.318;2022-10-17T10:23:19;19.26;50.05
72106;SHT30;59975;47.646;18.318;2022-10-17T10:25:58;19.35;50.05
72106;SHT30;59975;47.646;18.318;2022-10-17T10:35:32;19.52;48.76
72106;SHT30;59975;47.646;18.318;2022-10-17T10:38:01;19.59;47.78
72106;SHT30;59975;47.646;18.318;2022-10-17T10:40:37;19.63;47.06
72106;SHT30;59975;47.646;18.318;2022-10-17T10:43:22;19.55;47.24
72106;SHT30;59975;47.646;18.318;2022-10-17T10:45:50;19.65;47.40
72106;SHT30;59975;47.646;18.318;2022-10-17T10:48:20;19.67;47.80
72106;SHT30;59975;47.646;18.318;2022-10-17T10:51:12;19.80;48.09
72106;SHT30;59975;47.646;18.318;2022-10-17T10:53:55;19.91;47.08
72106;SHT30;59975;47.646;18.318;2022-10-17T10:56:39;19.94;47.22
72106;SHT30;59975;47.646;18.318;2022-10-17T11:14:02;20.17;47.09
72106;SHT30;59975;47.646;18.318;2022-10-17T11:16:46;20.20;47.18
72106;SHT30;59975;47.646;18.318;2022-10-17T11:22:46;20.10;47.81
72106;SHT30;59975;47.646;18.318;2022-10-17T11:25:57;20.16;48.80
72106;SHT30;59975;47.646;18.318;2022-10-17T11:28:24;20.18;48.69
72106;SHT30;59975;47.646;18.318;2022-10-17T11:30:57;20.24;46.87
72106;SHT30;59975;47.646;18.318;2022-10-17T11:33:52;20.29;47.16
72106;SHT30;59975;47.646;18.318;2022-10-17T11:36:23;20.27;46.55
72106;SHT30;59975;47.646;18.318;2022-10-17T11:39:02;20.25;45.85
72106;SHT30;59975;47.646;18.318;2022-10-17T11:41:39;20.34;46.07
72106;SHT30;59975;47.646;18.318;2022-10-17T11:46:57;20.29;45.06
72106;SHT30;59975;47.646;18.318;2022-10-17T11:49:45;20.32;45.31
72106;SHT30;59975;47.646;18.318;2022-10-17T11:54:55;20.34;44.82
72106;SHT30;59975;47.646;18.318;2022-10-17T12:03:33;20.51;43.82
72106;SHT30;59975;47.646;18.318;2022-10-17T12:06:13;20.56;43.52
72106;SHT30;59975;47.646;18.318;2022-10-17T12:08:52;20.51;43.58
72106;SHT30;59975;47.646;18.318;2022-10-17T12:14:49;20.55;44.60
72106;SHT30;59975;47.646;18.318;2022-10-17T12:17:33;20.61;44.88
72106;SHT30;59975;47.646;18.318;2022-10-17T12:25:54;20.72;44.16
72106;SHT30;59975;47.646;18.318;2022-10-17T12:28:39;20.68;44.38
72106;SHT30;59975;47.646;18.318;2022-10-17T12:41:58;20.72;44.82
72106;SHT30;59975;47.646;18.318;2022-10-17T12:49:48;20.61;44.99
72106;SHT30;59975;47.646;18.318;2022-10-17T12:52:18;20.59;45.30
72106;SHT30;59975;47.646;18.318;2022-10-17T12:55:16;20.69;44.85
72106;SHT30;59975;47.646;18.318;2022-10-17T13:01:05;20.73;44.77
72106;SHT30;59975;47.646;18.318;2022-10-17T13:03:34;20.81;43.99
72106;SHT30;59975;47.646;18.318;2022-10-17T13:06:29;20.88;43.51
72106;SHT30;59975;47.646;18.318;2022-10-17T13:09:01;20.93;43.14
72106;SHT30;59975;47.646;18.318;2022-10-17T13:11:30;20.96;43.67
72106;SHT30;59975;47.646;18.318;2022-10-17T13:13:58;20.92;44.23
72106;SHT30;59975;47.646;18.318;2022-10-17T13:16:29;20.89;44.39
72106;SHT30;59975;47.646;18.318;2022-10-17T13:18:54;20.88;43.72
72106;SHT30;59975;47.646;18.318;2022-10-17T13:21:20;20.93;42.63
72106;SHT30;59975;47.646;18.318;2022-10-17T13:23:46;20.90;43.08
72106;SHT30;59975;47.646;18.318;2022-10-17T13:26:19;20.90;42.53
72106;SHT30;59975;47.646;18.318;2022-10-17T13:29:10;20.96;41.57
72106;SHT30;59975;47.646;18.318;2022-10-17T13:31:39;20.92;42.29
72106;SHT30;59975;47.646;18.318;2022-10-17T13:34:15;20.95;41.52
72106;SHT30;59975;47.646;18.318;2022-10-17T13:36:43;20.99;40.74
72106;SHT30;59975;47.646;18.318;2022-10-17T13:39:14;20.98;42.94
72106;SHT30;59975;47.646;18.318;2022-10-17T13:41:44;20.93;44.17
72106;SHT30;59975;47.646;18.318;2022-10-17T13:44:19;20.90;43.71
72106;SHT30;59975;47.646;18.318;2022-10-17T13:46:45;20.90;43.77
72106;SHT30;59975;47.646;18.318;2022-10-17T13:51:54;20.93;44.19
72106;SHT30;59975;47.646;18.318;2022-10-17T13:54:39;20.90;44.65
72106;SHT30;59975;47.646;18.318;2022-10-17T13:59:41;20.90;45.10
72106;SHT30;59975;47.646;18.318;2022-10-17T14:02:31;20.83;45.05
72106;SHT30;59975;47.646;18.318;2022-10-17T14:05:12;20.78;45.12
72106;SHT30;59975;47.646;18.318;2022-10-17T14:07:42;20.73;45.47
72106;SHT30;59975;47.646;18.318;2022-10-17T14:10:31;20.69;45.64
72106;SHT30;59975;47.646;18.318;2022-10-17T14:13:04;20.65;45.55
72106;SHT30;59975;47.646;18.318;2022-10-17T14:15:33;20.62;45.71
72106;SHT30;59975;47.646;18.318;2022-10-17T14:18:04;20.56;46.28
72106;SHT30;59975;47.646;18.318;2022-10-17T14:20:32;20.48;46.41
72106;SHT30;59975;47.646;18.318;2022-10-17T14:22:58;20.48;46.05
72106;SHT30;59975;47.646;18.318;2022-10-17T14:25:36;20.47;46.30
72106;SHT30;59975;47.646;18.318;2022-10-17T14:30:52;20.34;47.02
72106;SHT30;59975;47.646;18.318;2022-10-17T14:33:28;20.22;47.86
72106;SHT30;59975;47.646;18.318;2022-10-17T14:35:56;20.08;47.53
72106;SHT30;59975;47.646;18.318;2022-10-17T14:38:22;20.04;47.90
72106;SHT30;59975;47.646;18.318;2022-10-17T14:41:12;19.96;48.24
72106;SHT30;59975;47.646;18.318;2022-10-17T14:43:44;19.87;48.51
72106;SHT30;59975;47.646;18.318;2022-10-17T14:46:16;19.83;48.73
72106;SHT30;59975;47.646;18.318;2022-10-17T14:48:42;19.74;49.20
72106;SHT30;59975;47.646;18.318;2022-10-17T14:51:10;19.70;49.24
72106;SHT30;59975;47.646;18.318;2022-10-17T14:53:37;19.62;49.55
72106;SHT30;59975;47.646;18.318;2022-10-17T14:56:19;19.53;49.72
72106;SHT30;59975;47.646;18.318;2022-10-17T14:58:45;19.40;50.20
72106;SHT30;59975;47.646;18.318;2022-10-17T15:01:10;19.32;50.35
72106;SHT30;59975;47.646;18.318;2022-10-17T15:03:41;19.27;50.23
72106;SHT30;59975;47.646;18.318;2022-10-17T15:06:30;19.27;50.41
72106;SHT30;59975;47.646;18.318;2022-10-17T15:08:56;19.15;51.40
72106;SHT30;59975;47.646;18.318;2022-10-17T15:11:22;19.13;50.81
72106;SHT30;59975;47.646;18.318;2022-10-17T15:13:50;19.06;50.93
72106;SHT30;59975;47.646;18.318;2022-10-17T15:16:19;18.99;51.29
72106;SHT30;59975;47.646;18.318;2022-10-17T15:18:45;18.94;51.36
72106;SHT30;59975;47.646;18.318;2022-10-17T15:21:12;18.85;51.71
72106;SHT30;59975;47.646;18.318;2022-10-17T15:23:37;18.81;52.05
72106;SHT30;59975;47.646;18.318;2022-10-17T15:26:10;18.61;52.14
72106;SHT30;59975;47.646;18.318;2022-10-17T15:28:37;18.52;52.27
72106;SHT30;59975;47.646;18.318;2022-10-17T15:31:02;18.47;52.32
72106;SHT30;59975;47.646;18.318;2022-10-17T15:33:28;18.38;52.97
72106;SHT30;59975;47.646;18.318;2022-10-17T15:35:53;18.27;53.28
72106;SHT30;59975;47.646;18.318;2022-10-17T15:38:19;18.20;53.42
72106;SHT30;59975;47.646;18.318;2022-10-17T15:40:44;18.14;53.66
72106;SHT30;59975;47.646;18.318;2022-10-17T15:43:13;18.00;54.11
72106;SHT30;59975;47.646;18.318;2022-10-17T15:45:38;17.86;54.63
72106;SHT30;59975;47.646;18.318;2022-10-17T15:51:26;17.66;55.24
72106;SHT30;59975;47.646;18.318;2022-10-17T15:53:52;17.62;55.50
72106;SHT30;59975;47.646;18.318;2022-10-17T15:56:25;17.50;55.76
72106;SHT30;59975;47.646;18.318;2022-10-17T15:58:52;17.38;56.16
72106;SHT30;59975;47.646;18.318;2022-10-17T16:01:24;17.25;56.75
72106;SHT30;59975;47.646;18.318;2022-10-17T16:03:50;17.12;56.93
72106;SHT30;59975;47.646;18.318;2022-10-17T16:06:17;17.00;57.30
72106;SHT30;59975;47.646;18.318;2022-10-17T16:08:45;16.91;57.67
72106;SHT30;59975;47.646;18.318;2022-10-17T16:14:13;16.64;58.57
72106;SHT30;59975;47.646;18.318;2022-10-17T16:16:39;16.51;59.13
72106;SHT30;59975;47.646;18.318;2022-10-17T16:19:05;16.43;59.73
72106;SHT30;59975;47.646;18.318;2022-10-17T16:21:38;16.33;59.66
72106;SHT30;59975;47.646;18.318;2022-10-17T16:24:04;16.23;59.97
72106;SHT30;59975;47.646;18.318;2022-10-17T16:26:30;16.16;60.37
72106;SHT30;59975;47.646;18.318;2022-10-17T16:28:55;16.03;60.64
72106;SHT30;59975;47.646;18.318;2022-10-17T16:31:27;15.93;60.90
72106;SHT30;59975;47.646;18.318;2022-10-17T16:33:55;15.85;61.19
72106;SHT30;59975;47.646;18.318;2022-10-17T16:36:21;15.81;61.11
72106;SHT30;59975;47.646;18.318;2022-10-17T16:38:48;15.79;60.85
72106;SHT30;59975;47.646;18.318;2022-10-17T16:41:36;15.77;60.73
72106;SHT30;59975;47.646;18.318;2022-10-17T16:44:10;15.77;60.70
72106;SHT30;59975;47.646;18.318;2022-10-17T16:46:38;15.81;60.60
72106;SHT30;59975;47.646;18.318;2022-10-17T16:49:04;15.79;60.48
72106;SHT30;59975;47.646;18.318;2022-10-17T16:51:36;15.79;60.48
72106;SHT30;59975;47.646;18.318;2022-10-17T16:54:02;15.89;60.39
72106;SHT30;59975;47.646;18.318;2022-10-17T16:56:29;15.79;60.29
72106;SHT30;59975;47.646;18.318;2022-10-17T16:58:57;15.77;60.41
72106;SHT30;59975;47.646;18.318;2022-10-17T17:01:24;15.72;60.46
72106;SHT30;59975;47.646;18.318;2022-10-17T17:03:51;15.72;60.62
72106;SHT30;59975;47.646;18.318;2022-10-17T17:06:20;15.69;60.61
72106;SHT30;59975;47.646;18.318;2022-10-17T17:08:46;15.68;60.68
72106;SHT30;59975;47.646;18.318;2022-10-17T17:11:14;15.68;60.76
72106;SHT30;59975;47.646;18.318;2022-10-17T17:13:40;15.65;60.96
72106;SHT30;59975;47.646;18.318;2022-10-17T17:16:09;15.58;61.51
72106;SHT30;59975;47.646;18.318;2022-10-17T17:18:35;15.58;61.67
72106;SHT30;59975;47.646;18.318;2022-10-17T17:21:02;15.58;61.43
72106;SHT30;59975;47.646;18.318;2022-10-17T17:23:31;15.48;61.71
72106;SHT30;59975;47.646;18.318;2022-10-17T17:25:58;15.48;61.73
72106;SHT30;59975;47.646;18.318;2022-10-17T17:28:24;15.44;61.75
72106;SHT30;59975;47.646;18.318;2022-10-17T17:30:50;15.41;61.77
72106;SHT30;59975;47.646;18.318;2022-10-17T17:33:16;15.37;61.91
72106;SHT30;59975;47.646;18.318;2022-10-17T17:35:41;15.31;62.12
72106;SHT30;59975;47.646;18.318;2022-10-17T17:38:07;15.24;62.27
72106;SHT30;59975;47.646;18.318;2022-10-17T17:40:32;15.18;62.47
72106;SHT30;59975;47.646;18.318;2022-10-17T17:42:59;15.14;62.78
72106;SHT30;59975;47.646;18.318;2022-10-17T17:45:24;15.12;62.78
72106;SHT30;59975;47.646;18.318;2022-10-17T17:47:50;15.11;62.86
72106;SHT30;59975;47.646;18.318;2022-10-17T17:50:17;15.06;62.98
72106;SHT30;59975;47.646;18.318;2022-10-17T17:52:42;14.97;63.20
72106;SHT30;59975;47.646;18.318;2022-10-17T17:55:10;14.88;63.52
72106;SHT30;59975;47.646;18.318;2022-10-17T17:57:36;14.83;63.76
72106;SHT30;59975;47.646;18.318;2022-10-17T18:00:02;14.80;63.95
72106;SHT30;59975;47.646;18.318;2022-10-17T18:02:28;14.80;63.97
72106;SHT30;59975;47.646;18.318;2022-10-17T18:04:53;14.79;63.97
72106;SHT30;59975;47.646;18.318;2022-10-17T18:07:19;14.73;64.01
72106;SHT30;59975;47.646;18.318;2022-10-17T18:09:44;14.69;64.36
72106;SHT30;59975;47.646;18.318;2022-10-17T18:12:10;14.66;64.35
72106;SHT30;59975;47.646;18.318;2022-10-17T18:14:35;14.56;64.53
72106;SHT30;59975;47.646;18.318;2022-10-17T18:17:01;14.56;64.97
72106;SHT30;59975;47.646;18.318;2022-10-17T18:19:26;14.53;65.11
72106;SHT30;59975;47.646;18.318;2022-10-17T18:21:53;14.46;65.48
72106;SHT30;59975;47.646;18.318;2022-10-17T18:24:19;14.42;65.47
72106;SHT30;59975;47.646;18.318;2022-10-17T18:26:44;14.34;65.65
72106;SHT30;59975;47.646;18.318;2022-10-17T18:29:10;14.30;66.01
72106;SHT30;59975;47.646;18.318;2022-10-17T18:31:37;14.28;66.42
72106;SHT30;59975;47.646;18.318;2022-10-17T18:34:03;14.21;66.56
72106;SHT30;59975;47.646;18.318;2022-10-17T18:36:29;14.21;66.98